sensor_id;sensor_type;location;lat;lon;timestamp;pressure;altitude;pressure_sealevel;temperature
68127;BMP180;54931;52.098;21.006;2023-03-23T00:01:30;99579.40;;;7.90
68127;BMP180;54931;52.098;21.006;2023-03-23T00:03:59;99581.80;;;7.90
68127;BMP180;54931;52.098;21.006;2023-03-23T00:06:28;99581.00;;;7.90
68127;BMP180;54931;52.098;21.006;2023-03-23T00:09:01;99577.20;;;7.90
68127;BMP180;54931;52.098;21.006;2023-03-23T00:11:32;99585.20;;;7.90
68127;BMP180;54931;52.098;21.006;2023-03-23T00:14:01;99574.00;;;7.90
68127;BMP180;54931;52.098;21.006;2023-03-23T00:16:32;99571.00;;;7.90
68127;BMP180;54931;52.098;21.006;2023-03-23T00:19:11;99575.20;;;7.90
68127;BMP180;54931;52.098;21.006;2023-03-23T00:21:43;99579.60;;;7.90
68127;BMP180;54931;52.098;21.006;2023-03-23T00:24:15;99572.00;;;7.86
68127;BMP180;54931;52.098;21.006;2023-03-23T00:26:46;99571.40;;;7.86
68127;BMP180;54931;52.098;21.006;2023-03-23T00:29:20;99568.00;;;7.80
68127;BMP180;54931;52.098;21.006;2023-03-23T00:31:49;99565.80;;;7.80
68127;BMP180;54931;52.098;21.006;2023-03-23T00:34:21;99566.40;;;7.80
68127;BMP180;54931;52.098;21.006;2023-03-23T00:36:54;99558.00;;;7.72
68127;BMP180;54931;52.098;21.006;2023-03-23T00:39:27;99560.40;;;7.70
68127;BMP180;54931;52.098;21.006;2023-03-23T00:41:55;99552.60;;;7.70
68127;BMP180;54931;52.098;21.006;2023-03-23T00:44:30;99552.40;;;7.70
68127;BMP180;54931;52.098;21.006;2023-03-23T00:46:58;99552.00;;;7.80
68127;BMP180;54931;52.098;21.006;2023-03-23T00:49:27;99546.60;;;7.80
68127;BMP180;54931;52.098;21.006;2023-03-23T00:51:57;99546.60;;;7.82
68127;BMP180;54931;52.098;21.006;2023-03-23T00:54:26;99544.20;;;7.90
68127;BMP180;54931;52.098;21.006;2023-03-23T00:56:55;99547.00;;;8.00
68127;BMP180;54931;52.098;21.006;2023-03-23T00:59:23;99539.40;;;8.00
68127;BMP180;54931;52.098;21.006;2023-03-23T01:01:51;99539.80;;;8.00
68127;BMP180;54931;52.098;21.006;2023-03-23T01:04:18;99539.20;;;8.10
68127;BMP180;54931;52.098;21.006;2023-03-23T01:06:50;99534.60;;;8.10
68127;BMP180;54931;52.098;21.006;2023-03-23T01:09:19;99536.20;;;8.14
68127;BMP180;54931;52.098;21.006;2023-03-23T01:11:50;99535.80;;;8.16
68127;BMP180;54931;52.098;21.006;2023-03-23T01:14:19;99531.20;;;8.10
68127;BMP180;54931;52.098;21.006;2023-03-23T01:16:48;99532.00;;;8.16
68127;BMP180;54931;52.098;21.006;2023-03-23T01:19:16;99533.60;;;8.14
68127;BMP180;54931;52.098;21.006;2023-03-23T01:21:44;99524.80;;;8.12
68127;BMP180;54931;52.098;21.006;2023-03-23T01:24:12;99527.20;;;8.16
68127;BMP180;54931;52.098;21.006;2023-03-23T01:26:41;99527.60;;;8.16
68127;BMP180;54931;52.098;21.006;2023-03-23T01:29:08;99528.80;;;8.16
68127;BMP180;54931;52.098;21.006;2023-03-23T01:31:37;99533.00;;;8.18
68127;BMP180;54931;52.098;21.006;2023-03-23T01:34:06;99530.20;;;8.16
68127;BMP180;54931;52.098;21.006;2023-03-23T01:36:36;99528.20;;;8.18
68127;BMP180;54931;52.098;21.006;2023-03-23T01:39:05;99528.60;;;8.10
68127;BMP180;54931;52.098;21.006;2023-03-23T01:41:37;99525.80;;;8.10
68127;BMP180;54931;52.098;21.006;2023-03-23T01:46:44;99532.00;;;8.10
68127;BMP180;54931;52.098;21.006;2023-03-23T01:49:17;99531.00;;;8.10
68127;BMP180;54931;52.098;21.006;2023-03-23T01:51:57;99532.00;;;8.10
68127;BMP180;54931;52.098;21.006;2023-03-23T01:54:26;99534.00;;;8.10
68127;BMP180;54931;52.098;21.006;2023-03-23T01:57:05;99535.80;;;8.10
68127;BMP180;54931;52.098;21.006;2023-03-23T01:59:35;99532.80;;;8.10
68127;BMP180;54931;52.098;21.006;2023-03-23T02:02:04;99527.60;;;8.10
68127;BMP180;54931;52.098;21.006;2023-03-23T02:04:34;99528.20;;;8.00
68127;BMP180;54931;52.098;21.006;2023-03-23T02:07:03;99523.20;;;8.00
68127;BMP180;54931;52.098;21.006;2023-03-23T02:09:31;99519.60;;;8.00
68127;BMP180;54931;52.098;21.006;2023-03-23T02:11:59;99517.60;;;7.98
68127;BMP180;54931;52.098;21.006;2023-03-23T02:14:29;99518.60;;;7.90
68127;BMP180;54931;52.098;21.006;2023-03-23T02:17:28;99513.20;;;7.90
68127;BMP180;54931;52.098;21.006;2023-03-23T02:26:27;99504.80;;;7.80
68127;BMP180;54931;52.098;21.006;2023-03-23T02:29:43;99504.20;;;7.70
68127;BMP180;54931;52.098;21.006;2023-03-23T02:32:23;99501.20;;;7.70
68127;BMP180;54931;52.098;21.006;2023-03-23T02:35:03;99499.60;;;7.70
68127;BMP180;54931;52.098;21.006;2023-03-23T02:37:44;99495.60;;;7.70
68127;BMP180;54931;52.098;21.006;2023-03-23T02:40:23;99499.40;;;7.70
68127;BMP180;54931;52.098;21.006;2023-03-23T02:42:55;99504.80;;;7.70
68127;BMP180;54931;52.098;21.006;2023-03-23T02:45:28;99506.20;;;7.70
68127;BMP180;54931;52.098;21.006;2023-03-23T02:47:56;99498.80;;;7.70
68127;BMP180;54931;52.098;21.006;2023-03-23T02:50:27;99497.60;;;7.70
68127;BMP180;54931;52.098;21.006;2023-03-23T02:52:58;99495.40;;;7.74
68127;BMP180;54931;52.098;21.006;2023-03-23T02:55:29;99495.20;;;7.80
68127;BMP180;54931;52.098;21.006;2023-03-23T02:57:57;99494.00;;;7.80
68127;BMP180;54931;52.098;21.006;2023-03-23T03:00:25;99495.20;;;7.80
68127;BMP180;54931;52.098;21.006;2023-03-23T03:02:56;99495.60;;;7.80
68127;BMP180;54931;52.098;21.006;2023-03-23T03:11:20;99500.60;;;7.90
68127;BMP180;54931;52.098;21.006;2023-03-23T03:14:04;99502.00;;;7.90
68127;BMP180;54931;52.098;21.006;2023-03-23T03:16:50;99501.60;;;7.90
68127;BMP180;54931;52.098;21.006;2023-03-23T03:19:30;99504.40;;;7.90
68127;BMP180;54931;52.098;21.006;2023-03-23T03:22:01;99501.00;;;7.94
68127;BMP180;54931;52.098;21.006;2023-03-23T03:24:31;99504.60;;;8.00
68127;BMP180;54931;52.098;21.006;2023-03-23T03:27:01;99502.00;;;8.00
68127;BMP180;54931;52.098;21.006;2023-03-23T03:29:38;99495.80;;;8.00
68127;BMP180;54931;52.098;21.006;2023-03-23T03:32:15;99495.40;;;8.04
68127;BMP180;54931;52.098;21.006;2023-03-23T03:34:44;99492.40;;;8.08
68127;BMP180;54931;52.098;21.006;2023-03-23T03:37:12;99495.80;;;8.10
68127;BMP180;54931;52.098;21.006;2023-03-23T03:39:40;99502.40;;;8.10
68127;BMP180;54931;52.098;21.006;2023-03-23T03:42:08;99504.80;;;8.00
68127;BMP180;54931;52.098;21.006;2023-03-23T03:44:36;99512.40;;;8.00
68127;BMP180;54931;52.098;21.006;2023-03-23T03:47:04;99513.60;;;8.00
68127;BMP180;54931;52.098;21.006;2023-03-23T03:49:32;99513.40;;;7.90
68127;BMP180;54931;52.098;21.006;2023-03-23T03:51:59;99517.40;;;7.90
68127;BMP180;54931;52.098;21.006;2023-03-23T03:54:27;99515.40;;;7.80
68127;BMP180;54931;52.098;21.006;2023-03-23T03:56:55;99516.20;;;7.70
68127;BMP180;54931;52.098;21.006;2023-03-23T03:59:25;99516.60;;;7.60
68127;BMP180;54931;52.098;21.006;2023-03-23T04:01:54;99511.80;;;7.60
68127;BMP180;54931;52.098;21.006;2023-03-23T04:04:22;99510.20;;;7.50
68127;BMP180;54931;52.098;21.006;2023-03-23T04:06:49;99498.00;;;7.50
68127;BMP180;54931;52.098;21.006;2023-03-23T04:09:17;99494.40;;;7.46
68127;BMP180;54931;52.098;21.006;2023-03-23T04:11:46;99488.40;;;7.40
68127;BMP180;54931;52.098;21.006;2023-03-23T04:14:14;99483.20;;;7.40
68127;BMP180;54931;52.098;21.006;2023-03-23T04:16:42;99476.00;;;7.32
68127;BMP180;54931;52.098;21.006;2023-03-23T04:19:11;99474.00;;;7.30
68127;BMP180;54931;52.098;21.006;2023-03-23T04:21:39;99476.20;;;7.30
68127;BMP180;54931;52.098;21.006;2023-03-23T04:24:07;99476.60;;;7.20
68127;BMP180;54931;52.098;21.006;2023-03-23T04:26:37;99478.60;;;7.20
68127;BMP180;54931;52.098;21.006;2023-03-23T04:29:08;99482.00;;;7.12
68127;BMP180;54931;52.098;21.006;2023-03-23T04:31:36;99476.00;;;7.10
68127;BMP180;54931;52.098;21.006;2023-03-23T04:34:04;99480.40;;;7.10
68127;BMP180;54931;52.098;21.006;2023-03-23T04:36:32;99486.40;;;7.10
68127;BMP180;54931;52.098;21.006;2023-03-23T04:39:03;99486.80;;;7.06
68127;BMP180;54931;52.098;21.006;2023-03-23T04:41:35;99484.80;;;7.02
68127;BMP180;54931;52.098;21.006;2023-03-23T04:44:04;99480.40;;;7.00
68127;BMP180;54931;52.098;21.006;2023-03-23T04:46:33;99482.40;;;7.00
68127;BMP180;54931;52.098;21.006;2023-03-23T04:49:01;99482.60;;;7.00
68127;BMP180;54931;52.098;21.006;2023-03-23T04:51:29;99480.60;;;7.00
68127;BMP180;54931;52.098;21.006;2023-03-23T04:53:58;99478.40;;;7.00
68127;BMP180;54931;52.098;21.006;2023-03-23T04:56:26;99477.40;;;7.00
68127;BMP180;54931;52.098;21.006;2023-03-23T04:58:54;99482.60;;;7.00
68127;BMP180;54931;52.098;21.006;2023-03-23T05:01:22;99483.60;;;6.98
68127;BMP180;54931;52.098;21.006;2023-03-23T05:03:50;99478.20;;;6.92
68127;BMP180;54931;52.098;21.006;2023-03-23T05:06:18;99474.00;;;6.96
68127;BMP180;54931;52.098;21.006;2023-03-23T05:08:46;99477.20;;;7.00
68127;BMP180;54931;52.098;21.006;2023-03-23T05:11:14;99477.40;;;7.00
68127;BMP180;54931;52.098;21.006;2023-03-23T05:13:42;99481.20;;;7.00
68127;BMP180;54931;52.098;21.006;2023-03-23T05:16:12;99480.40;;;7.10
68127;BMP180;54931;52.098;21.006;2023-03-23T05:18:40;99475.20;;;7.10
68127;BMP180;54931;52.098;21.006;2023-03-23T05:21:08;99475.80;;;7.20
68127;BMP180;54931;52.098;21.006;2023-03-23T05:23:35;99471.40;;;7.20
68127;BMP180;54931;52.098;21.006;2023-03-23T05:26:04;99476.20;;;7.30
68127;BMP180;54931;52.098;21.006;2023-03-23T05:28:32;99474.20;;;7.38
68127;BMP180;54931;52.098;21.006;2023-03-23T05:31:00;99474.40;;;7.44
68127;BMP180;54931;52.098;21.006;2023-03-23T05:33:28;99475.80;;;7.50
68127;BMP180;54931;52.098;21.006;2023-03-23T05:35:56;99471.60;;;7.60
68127;BMP180;54931;52.098;21.006;2023-03-23T05:38:24;99475.80;;;7.70
68127;BMP180;54931;52.098;21.006;2023-03-23T05:40:52;99478.80;;;7.80
68127;BMP180;54931;52.098;21.006;2023-03-23T05:43:20;99487.40;;;7.90
68127;BMP180;54931;52.098;21.006;2023-03-23T05:45:48;99481.20;;;8.00
68127;BMP180;54931;52.098;21.006;2023-03-23T05:48:17;99477.20;;;8.10
68127;BMP180;54931;52.098;21.006;2023-03-23T05:50:45;99476.80;;;8.20
68127;BMP180;54931;52.098;21.006;2023-03-23T05:53:12;99474.20;;;8.30
68127;BMP180;54931;52.098;21.006;2023-03-23T05:55:40;99483.80;;;8.50
68127;BMP180;54931;52.098;21.006;2023-03-23T05:58:08;99490.20;;;8.60
68127;BMP180;54931;52.098;21.006;2023-03-23T06:00:36;99490.00;;;8.80
68127;BMP180;54931;52.098;21.006;2023-03-23T06:03:05;99482.20;;;9.00
68127;BMP180;54931;52.098;21.006;2023-03-23T06:05:33;99487.60;;;9.20
68127;BMP180;54931;52.098;21.006;2023-03-23T06:08:01;99495.00;;;9.40
68127;BMP180;54931;52.098;21.006;2023-03-23T06:10:29;99495.80;;;9.50
68127;BMP180;54931;52.098;21.006;2023-03-23T06:12:58;99487.60;;;9.62
68127;BMP180;54931;52.098;21.006;2023-03-23T06:15:27;99488.20;;;9.70
68127;BMP180;54931;52.098;21.006;2023-03-23T06:18:01;99488.20;;;9.80
68127;BMP180;54931;52.098;21.006;2023-03-23T06:20:29;99490.80;;;10.00
68127;BMP180;54931;52.098;21.006;2023-03-23T06:22:58;99489.60;;;10.20
68127;BMP180;54931;52.098;21.006;2023-03-23T06:25:25;99482.40;;;10.36
68127;BMP180;54931;52.098;21.006;2023-03-23T06:27:54;99486.40;;;10.44
68127;BMP180;54931;52.098;21.006;2023-03-23T06:30:22;99494.00;;;10.50
68127;BMP180;54931;52.098;21.006;2023-03-23T06:32:51;99493.60;;;10.60
68127;BMP180;54931;52.098;21.006;2023-03-23T06:35:19;99493.60;;;10.70
68127;BMP180;54931;52.098;21.006;2023-03-23T06:37:48;99498.00;;;10.80
68127;BMP180;54931;52.098;21.006;2023-03-23T06:40:15;99502.80;;;10.90
68127;BMP180;54931;52.098;21.006;2023-03-23T06:42:46;99497.20;;;11.02
68127;BMP180;54931;52.098;21.006;2023-03-23T06:45:14;99503.60;;;11.10
68127;BMP180;54931;52.098;21.006;2023-03-23T06:47:42;99497.60;;;11.10
68127;BMP180;54931;52.098;21.006;2023-03-23T06:50:11;99499.00;;;11.22
68127;BMP180;54931;52.098;21.006;2023-03-23T06:52:38;99499.20;;;11.46
68127;BMP180;54931;52.098;21.006;2023-03-23T06:55:07;99503.00;;;11.88
68127;BMP180;54931;52.098;21.006;2023-03-23T06:57:36;99507.40;;;12.22
68127;BMP180;54931;52.098;21.006;2023-03-23T07:00:06;99507.20;;;12.60
68127;BMP180;54931;52.098;21.006;2023-03-23T07:02:36;99503.80;;;12.90
68127;BMP180;54931;52.098;21.006;2023-03-23T07:05:05;99506.00;;;13.10
68127;BMP180;54931;52.098;21.006;2023-03-23T07:07:33;99509.80;;;13.30
68127;BMP180;54931;52.098;21.006;2023-03-23T07:10:03;99513.80;;;13.40
68127;BMP180;54931;52.098;21.006;2023-03-23T07:12:32;99517.40;;;13.58
68127;BMP180;54931;52.098;21.006;2023-03-23T07:15:01;99515.60;;;13.70
68127;BMP180;54931;52.098;21.006;2023-03-23T07:17:29;99517.80;;;13.86
68127;BMP180;54931;52.098;21.006;2023-03-23T07:19:57;99513.00;;;13.90
68127;BMP180;54931;52.098;21.006;2023-03-23T07:22:26;99510.20;;;14.10
68127;BMP180;54931;52.098;21.006;2023-03-23T07:24:53;99512.60;;;14.30
68127;BMP180;54931;52.098;21.006;2023-03-23T07:27:22;99509.80;;;14.20
68127;BMP180;54931;52.098;21.006;2023-03-23T07:29:51;99510.80;;;14.30
68127;BMP180;54931;52.098;21.006;2023-03-23T07:32:18;99508.40;;;14.40
68127;BMP180;54931;52.098;21.006;2023-03-23T07:34:46;99519.80;;;14.50
68127;BMP180;54931;52.098;21.006;2023-03-23T07:37:14;99520.40;;;14.54
68127;BMP180;54931;52.098;21.006;2023-03-23T07:39:43;99521.60;;;14.70
68127;BMP180;54931;52.098;21.006;2023-03-23T07:42:11;99521.00;;;14.84
68127;BMP180;54931;52.098;21.006;2023-03-23T07:44:39;99522.80;;;15.06
68127;BMP180;54931;52.098;21.006;2023-03-23T07:47:06;99522.00;;;15.48
68127;BMP180;54931;52.098;21.006;2023-03-23T07:49:35;99526.60;;;15.72
68127;BMP180;54931;52.098;21.006;2023-03-23T07:52:04;99530.40;;;15.66
68127;BMP180;54931;52.098;21.006;2023-03-23T07:54:32;99529.80;;;15.50
68127;BMP180;54931;52.098;21.006;2023-03-23T07:56:59;99533.20;;;15.40
68127;BMP180;54931;52.098;21.006;2023-03-23T07:59:27;99536.00;;;15.40
68127;BMP180;54931;52.098;21.006;2023-03-23T08:01:55;99537.00;;;15.20
68127;BMP180;54931;52.098;21.006;2023-03-23T08:04:25;99531.40;;;15.10
68127;BMP180;54931;52.098;21.006;2023-03-23T08:06:54;99525.40;;;15.10
68127;BMP180;54931;52.098;21.006;2023-03-23T08:09:22;99526.80;;;15.26
68127;BMP180;54931;52.098;21.006;2023-03-23T08:11:50;99520.00;;;15.40
68127;BMP180;54931;52.098;21.006;2023-03-23T08:14:19;99522.20;;;15.40
68127;BMP180;54931;52.098;21.006;2023-03-23T08:16:46;99519.00;;;15.40
68127;BMP180;54931;52.098;21.006;2023-03-23T08:19:15;99517.60;;;15.46
68127;BMP180;54931;52.098;21.006;2023-03-23T08:21:43;99512.80;;;15.50
68127;BMP180;54931;52.098;21.006;2023-03-23T08:24:10;99510.80;;;15.80
68127;BMP180;54931;52.098;21.006;2023-03-23T08:26:39;99504.40;;;16.22
68127;BMP180;54931;52.098;21.006;2023-03-23T08:29:07;99501.60;;;16.74
68127;BMP180;54931;52.098;21.006;2023-03-23T08:31:35;99499.20;;;17.24
68127;BMP180;54931;52.098;21.006;2023-03-23T08:34:05;99499.20;;;17.60
68127;BMP180;54931;52.098;21.006;2023-03-23T08:36:34;99503.00;;;17.70
68127;BMP180;54931;52.098;21.006;2023-03-23T08:39:02;99498.20;;;17.60
68127;BMP180;54931;52.098;21.006;2023-03-23T08:41:32;99496.20;;;17.40
68127;BMP180;54931;52.098;21.006;2023-03-23T08:44:00;99489.80;;;17.16
68127;BMP180;54931;52.098;21.006;2023-03-23T08:46:28;99485.20;;;16.90
68127;BMP180;54931;52.098;21.006;2023-03-23T08:48:56;99480.00;;;16.70
68127;BMP180;54931;52.098;21.006;2023-03-23T08:51:25;99481.20;;;16.62
68127;BMP180;54931;52.098;21.006;2023-03-23T08:53:55;99485.80;;;16.50
68127;BMP180;54931;52.098;21.006;2023-03-23T08:56:23;99493.80;;;16.42
68127;BMP180;54931;52.098;21.006;2023-03-23T08:58:50;99499.20;;;16.50
68127;BMP180;54931;52.098;21.006;2023-03-23T09:01:18;99499.60;;;16.50
68127;BMP180;54931;52.098;21.006;2023-03-23T09:03:46;99499.20;;;16.56
68127;BMP180;54931;52.098;21.006;2023-03-23T09:06:14;99500.40;;;16.46
68127;BMP180;54931;52.098;21.006;2023-03-23T09:08:42;99498.20;;;16.40
68127;BMP180;54931;52.098;21.006;2023-03-23T09:11:11;99497.80;;;16.40
68127;BMP180;54931;52.098;21.006;2023-03-23T09:13:40;99501.80;;;16.40
68127;BMP180;54931;52.098;21.006;2023-03-23T09:16:09;99497.00;;;16.40
68127;BMP180;54931;52.098;21.006;2023-03-23T09:18:37;99495.40;;;16.48
68127;BMP180;54931;52.098;21.006;2023-03-23T09:21:06;99496.60;;;16.30
68127;BMP180;54931;52.098;21.006;2023-03-23T09:23:34;99499.20;;;16.30
68127;BMP180;54931;52.098;21.006;2023-03-23T09:26:03;99497.20;;;16.30
68127;BMP180;54931;52.098;21.006;2023-03-23T09:28:31;99496.40;;;16.20
68127;BMP180;54931;52.098;21.006;2023-03-23T09:30:59;99493.60;;;16.14
68127;BMP180;54931;52.098;21.006;2023-03-23T09:33:27;99495.80;;;16.16
68127;BMP180;54931;52.098;21.006;2023-03-23T09:36:00;99497.60;;;16.20
68127;BMP180;54931;52.098;21.006;2023-03-23T09:38:29;99493.00;;;16.30
68127;BMP180;54931;52.098;21.006;2023-03-23T09:47:24;99479.40;;;16.80
68127;BMP180;54931;52.098;21.006;2023-03-23T09:50:18;99476.60;;;17.00
68127;BMP180;54931;52.098;21.006;2023-03-23T09:53:00;99477.60;;;17.12
68127;BMP180;54931;52.098;21.006;2023-03-23T09:55:29;99477.00;;;17.30
68127;BMP180;54931;52.098;21.006;2023-03-23T09:58:31;99472.00;;;17.30
68127;BMP180;54931;52.098;21.006;2023-03-23T10:01:24;99460.20;;;17.26
68127;BMP180;54931;52.098;21.006;2023-03-23T10:04:26;99462.20;;;17.30
68127;BMP180;54931;52.098;21.006;2023-03-23T10:07:09;99465.60;;;17.44
68127;BMP180;54931;52.098;21.006;2023-03-23T10:09:38;99461.80;;;17.50
68127;BMP180;54931;52.098;21.006;2023-03-23T10:12:42;99469.40;;;17.62
68127;BMP180;54931;52.098;21.006;2023-03-23T10:15:18;99460.80;;;17.98
68127;BMP180;54931;52.098;21.006;2023-03-23T10:21:01;99447.60;;;18.90
68127;BMP180;54931;52.098;21.006;2023-03-23T10:24:02;99448.40;;;19.10
68127;BMP180;54931;52.098;21.006;2023-03-23T10:26:47;99449.60;;;19.52
68127;BMP180;54931;52.098;21.006;2023-03-23T10:29:31;99451.00;;;19.92
68127;BMP180;54931;52.098;21.006;2023-03-23T10:35:12;99444.20;;;20.86
68127;BMP180;54931;52.098;21.006;2023-03-23T10:37:52;99447.20;;;21.40
68127;BMP180;54931;52.098;21.006;2023-03-23T10:40:27;99451.60;;;21.80
68127;BMP180;54931;52.098;21.006;2023-03-23T10:42:57;99451.00;;;22.00
68127;BMP180;54931;52.098;21.006;2023-03-23T10:45:29;99451.80;;;21.80
68127;BMP180;54931;52.098;21.006;2023-03-23T10:48:31;99445.60;;;21.60
68127;BMP180;54931;52.098;21.006;2023-03-23T10:51:07;99448.40;;;21.74
68127;BMP180;54931;52.098;21.006;2023-03-23T10:53:46;99446.20;;;21.80
68127;BMP180;54931;52.098;21.006;2023-03-23T10:56:27;99437.00;;;21.66
68127;BMP180;54931;52.098;21.006;2023-03-23T10:58:56;99442.00;;;21.44
68127;BMP180;54931;52.098;21.006;2023-03-23T11:01:34;99439.20;;;21.40
68127;BMP180;54931;52.098;21.006;2023-03-23T11:04:16;99434.00;;;21.26
68127;BMP180;54931;52.098;21.006;2023-03-23T11:07:03;99429.00;;;21.10
68127;BMP180;54931;52.098;21.006;2023-03-23T11:09:38;99430.80;;;21.30
68127;BMP180;54931;52.098;21.006;2023-03-23T11:12:20;99429.20;;;21.44
68127;BMP180;54931;52.098;21.006;2023-03-23T11:14:48;99426.60;;;21.46
68127;BMP180;54931;52.098;21.006;2023-03-23T11:17:25;99423.20;;;21.44
68127;BMP180;54931;52.098;21.006;2023-03-23T11:19:54;99423.60;;;21.28
68127;BMP180;54931;52.098;21.006;2023-03-23T11:22:28;99423.20;;;20.94
68127;BMP180;54931;52.098;21.006;2023-03-23T11:25:03;99421.40;;;20.70
68127;BMP180;54931;52.098;21.006;2023-03-23T11:27:33;99415.40;;;20.50
68127;BMP180;54931;52.098;21.006;2023-03-23T11:30:19;99413.80;;;20.50
68127;BMP180;54931;52.098;21.006;2023-03-23T11:32:47;99407.40;;;20.82
68127;BMP180;54931;52.098;21.006;2023-03-23T11:35:28;99403.20;;;21.14
68127;BMP180;54931;52.098;21.006;2023-03-23T11:37:59;99396.40;;;21.46
68127;BMP180;54931;52.098;21.006;2023-03-23T11:40:30;99395.80;;;21.68
68127;BMP180;54931;52.098;21.006;2023-03-23T11:43:09;99398.60;;;21.80
68127;BMP180;54931;52.098;21.006;2023-03-23T11:45:46;99388.60;;;21.80
68127;BMP180;54931;52.098;21.006;2023-03-23T11:48:45;99380.80;;;21.70
68127;BMP180;54931;52.098;21.006;2023-03-23T11:51:29;99382.20;;;21.82
68127;BMP180;54931;52.098;21.006;2023-03-23T11:54:04;99383.80;;;22.02
68127;BMP180;54931;52.098;21.006;2023-03-23T11:56:37;99382.80;;;22.10
68127;BMP180;54931;52.098;21.006;2023-03-23T11:59:16;99380.80;;;22.00
68127;BMP180;54931;52.098;21.006;2023-03-23T12:05:34;99368.80;;;21.50
68127;BMP180;54931;52.098;21.006;2023-03-23T12:22:45;99354.60;;;21.70
68127;BMP180;54931;52.098;21.006;2023-03-23T12:34:39;99348.80;;;21.70
68127;BMP180;54931;52.098;21.006;2023-03-23T12:46:07;99337.80;;;21.30
68127;BMP180;54931;52.098;21.006;2023-03-23T12:51:59;99338.80;;;21.16
68127;BMP180;54931;52.098;21.006;2023-03-23T12:57:40;99333.20;;;21.00
68127;BMP180;54931;52.098;21.006;2023-03-23T13:00:24;99340.00;;;20.80
68127;BMP180;54931;52.098;21.006;2023-03-23T13:03:01;99336.00;;;20.60
68127;BMP180;54931;52.098;21.006;2023-03-23T13:05:50;99339.20;;;20.50
68127;BMP180;54931;52.098;21.006;2023-03-23T13:08:39;99332.80;;;20.50
68127;BMP180;54931;52.098;21.006;2023-03-23T13:11:28;99331.60;;;20.40
68127;BMP180;54931;52.098;21.006;2023-03-23T13:14:34;99334.20;;;20.30
68127;BMP180;54931;52.098;21.006;2023-03-23T13:17:32;99333.40;;;20.20
68127;BMP180;54931;52.098;21.006;2023-03-23T13:20:30;99331.60;;;19.96
68127;BMP180;54931;52.098;21.006;2023-03-23T13:23:18;99333.80;;;19.80
68127;BMP180;54931;52.098;21.006;2023-03-23T13:26:02;99328.60;;;19.60
68127;BMP180;54931;52.098;21.006;2023-03-23T13:28:55;99324.60;;;19.40
68127;BMP180;54931;52.098;21.006;2023-03-23T13:31:31;99326.60;;;19.30
68127;BMP180;54931;52.098;21.006;2023-03-23T13:34:30;99332.60;;;19.20
68127;BMP180;54931;52.098;21.006;2023-03-23T13:37:26;99326.40;;;19.02
68127;BMP180;54931;52.098;21.006;2023-03-23T13:39:57;99325.40;;;18.96
68127;BMP180;54931;52.098;21.006;2023-03-23T13:42:30;99327.20;;;18.90
68127;BMP180;54931;52.098;21.006;2023-03-23T13:50:55;99339.60;;;18.60
68127;BMP180;54931;52.098;21.006;2023-03-23T13:53:44;99327.80;;;18.60
68127;BMP180;54931;52.098;21.006;2023-03-23T13:59:16;99327.60;;;18.90
68127;BMP180;54931;52.098;21.006;2023-03-23T14:08:02;99332.00;;;19.00
68127;BMP180;54931;52.098;21.006;2023-03-23T14:11:00;99331.20;;;19.00
68127;BMP180;54931;52.098;21.006;2023-03-23T14:14:01;99346.80;;;18.70
68127;BMP180;54931;52.098;21.006;2023-03-23T14:16:43;99352.60;;;18.60
68127;BMP180;54931;52.098;21.006;2023-03-23T14:21:58;99355.20;;;18.30
68127;BMP180;54931;52.098;21.006;2023-03-23T14:24:30;99358.00;;;18.20
68127;BMP180;54931;52.098;21.006;2023-03-23T14:27:17;99359.80;;;18.10
68127;BMP180;54931;52.098;21.006;2023-03-23T14:29:58;99361.20;;;18.00
68127;BMP180;54931;52.098;21.006;2023-03-23T14:32:31;99366.60;;;18.00
68127;BMP180;54931;52.098;21.006;2023-03-23T14:35:08;99364.80;;;17.90
68127;BMP180;54931;52.098;21.006;2023-03-23T14:37:39;99364.00;;;17.80
68127;BMP180;54931;52.098;21.006;2023-03-23T14:40:28;99368.40;;;17.76
68127;BMP180;54931;52.098;21.006;2023-03-23T14:42:57;99371.20;;;17.60
68127;BMP180;54931;52.098;21.006;2023-03-23T14:45:27;99374.60;;;17.60
68127;BMP180;54931;52.098;21.006;2023-03-23T14:48:02;99381.20;;;17.50
68127;BMP180;54931;52.098;21.006;2023-03-23T14:50:42;99385.60;;;17.40
68127;BMP180;54931;52.098;21.006;2023-03-23T14:53:40;99389.40;;;17.30
68127;BMP180;54931;52.098;21.006;2023-03-23T14:56:15;99396.20;;;17.20
68127;BMP180;54931;52.098;21.006;2023-03-23T14:58:50;99389.80;;;17.10
68127;BMP180;54931;52.098;21.006;2023-03-23T15:01:26;99393.60;;;17.00
68127;BMP180;54931;52.098;21.006;2023-03-23T15:04:06;99392.80;;;17.00
68127;BMP180;54931;52.098;21.006;2023-03-23T15:06:40;99389.60;;;16.90
68127;BMP180;54931;52.098;21.006;2023-03-23T15:09:16;99395.60;;;16.90
68127;BMP180;54931;52.098;21.006;2023-03-23T15:12:03;99397.00;;;16.80
68127;BMP180;54931;52.098;21.006;2023-03-23T15:14:58;99397.60;;;16.80
68127;BMP180;54931;52.098;21.006;2023-03-23T15:17:35;99395.20;;;16.70
68127;BMP180;54931;52.098;21.006;2023-03-23T15:20:11;99394.20;;;16.70
68127;BMP180;54931;52.098;21.006;2023-03-23T15:22:49;99395.40;;;16.60
68127;BMP180;54931;52.098;21.006;2023-03-23T15:25:19;99394.20;;;16.50
68127;BMP180;54931;52.098;21.006;2023-03-23T15:28:14;99392.80;;;16.50
68127;BMP180;54931;52.098;21.006;2023-03-23T15:30:52;99396.20;;;16.40
68127;BMP180;54931;52.098;21.006;2023-03-23T15:33:21;99398.80;;;16.38
68127;BMP180;54931;52.098;21.006;2023-03-23T15:35:57;99397.80;;;16.30
68127;BMP180;54931;52.098;21.006;2023-03-23T15:38:33;99395.00;;;16.30
68127;BMP180;54931;52.098;21.006;2023-03-23T15:41:21;99396.60;;;16.20
68127;BMP180;54931;52.098;21.006;2023-03-23T15:43:56;99403.60;;;16.20
68127;BMP180;54931;52.098;21.006;2023-03-23T15:46:29;99404.00;;;16.20
68127;BMP180;54931;52.098;21.006;2023-03-23T15:51:29;99402.60;;;16.10
68127;BMP180;54931;52.098;21.006;2023-03-23T15:53:58;99405.80;;;16.10
68127;BMP180;54931;52.098;21.006;2023-03-23T15:56:26;99407.20;;;16.10
68127;BMP180;54931;52.098;21.006;2023-03-23T15:58:57;99407.80;;;16.10
68127;BMP180;54931;52.098;21.006;2023-03-23T16:01:29;99416.60;;;16.08
68127;BMP180;54931;52.098;21.006;2023-03-23T16:04:14;99414.80;;;16.00
68127;BMP180;54931;52.098;21.006;2023-03-23T16:06:44;99410.80;;;16.00